Time;durP1;ratioP1;P1;durP2;ratioP2;P2;SDS_P1;SDS_P2;PMS_P1;PMS_P2;Temp;Humidity;BMP_temperature;BMP_pressure;BME280_temperature;BME280_humidity;BME280_pressure;Samples;Min_cycle;Max_cycle;Signal;HPM_P1;HPM_P2
2023/05/08 00:00:26;;;;;;;15.27;12.88;;;17.70;80.50;;;;;;5073088;28;20404;-62
2023/05/08 00:02:52;;;;;;;14.10;11.88;;;17.70;80.50;;;;;;5070760;28;20021;-64
2023/05/08 00:05:17;;;;;;;16.05;12.32;;;17.70;80.50;;;;;;5073454;28;20342;-64
2023/05/08 00:07:43;;;;;;;16.88;13.27;;;17.70;80.50;;;;;;5058490;28;20465;-64
2023/05/08 00:10:09;;;;;;;14.50;11.90;;;17.70;80.50;;;;;;5073557;28;20458;-64
2023/05/08 00:12:36;;;;;;;17.38;13.70;;;17.70;80.50;;;;;;5064274;28;21556;-64
2023/05/08 00:15:03;;;;;;;15.63;13.25;;;17.60;80.50;;;;;;5073429;28;20024;-64
2023/05/08 00:17:30;;;;;;;14.38;12.13;;;17.60;80.60;;;;;;5073745;28;20032;-64
2023/05/08 00:19:55;;;;;;;15.98;12.43;;;17.60;80.70;;;;;;5060102;28;20434;-64
2023/05/08 00:22:22;;;;;;;14.95;12.20;;;17.60;80.70;;;;;;5069866;28;20030;-64
2023/05/08 00:24:47;;;;;;;15.23;12.18;;;17.60;80.70;;;;;;5064961;28;20372;-64
2023/05/08 00:27:13;;;;;;;15.48;12.25;;;17.60;80.70;;;;;;5072115;28;20037;-64
2023/05/08 00:29:39;;;;;;;15.30;12.68;;;17.60;80.70;;;;;;5060711;28;20028;-64
2023/05/08 00:32:06;;;;;;;15.05;12.63;;;17.60;80.60;;;;;;5061156;28;20037;-64
2023/05/08 00:34:32;;;;;;;16.65;13.13;;;17.60;80.50;;;;;;5066432;28;20029;-64
2023/05/08 00:36:57;;;;;;;17.45;13.57;;;17.60;80.50;;;;;;5072888;28;20021;-64
2023/05/08 00:39:23;;;;;;;15.20;13.05;;;17.60;80.80;;;;;;5066237;28;20112;-64
2023/05/08 00:41:49;;;;;;;15.95;13.13;;;17.60;80.50;;;;;;5064385;28;20013;-64
2023/05/08 00:44:15;;;;;;;17.88;13.82;;;17.60;80.50;;;;;;5064584;28;20025;-64
2023/05/08 00:46:42;;;;;;;15.18;12.90;;;17.50;80.50;;;;;;5065577;28;20032;-65
2023/05/08 00:49:10;;;;;;;16.60;13.38;;;17.50;80.50;;;;;;5073126;28;20031;-64
2023/05/08 00:51:36;;;;;;;17.77;14.75;;;17.50;80.50;;;;;;5070956;28;20436;-65
2023/05/08 00:54:02;;;;;;;15.85;13.20;;;17.50;80.50;;;;;;5060582;28;20457;-64
2023/05/08 00:56:29;;;;;;;16.65;14.02;;;17.50;80.50;;;;;;5058051;28;20033;-64
2023/05/08 00:58:55;;;;;;;18.55;14.10;;;17.50;80.50;;;;;;5072610;28;20020;-64
2023/05/08 01:01:22;;;;;;;16.45;13.48;;;17.50;80.50;;;;;;5067488;28;20029;-64
2023/05/08 01:03:48;;;;;;;15.90;13.13;;;17.40;80.40;;;;;;5071030;28;20066;-64
2023/05/08 01:06:14;;;;;;;17.58;13.18;;;17.40;80.50;;;;;;5063435;28;20028;-65
2023/05/08 01:08:43;;;;;;;16.50;13.35;;;17.40;80.50;;;;;;5072939;28;20158;-64
2023/05/08 01:11:32;;;;;;;16.20;13.15;;;17.40;80.40;;;;;;5062554;28;20044;-64
2023/05/08 01:14:19;;;;;;;16.75;12.38;;;17.30;80.40;;;;;;5071777;28;20115;-64
2023/05/08 01:16:54;;;;;;;16.23;12.75;;;17.30;80.20;;;;;;5062038;28;20424;-64
2023/05/08 01:19:42;;;;;;;15.63;12.95;;;17.30;80.30;;;;;;5055248;28;20430;-64
2023/05/08 01:22:30;;;;;;;16.08;12.57;;;17.30;80.30;;;;;;5056391;28;20051;-64
2023/05/08 01:25:17;;;;;;;16.25;12.40;;;17.20;80.20;;;;;;5065180;28;20078;-64
2023/05/08 01:27:54;;;;;;;17.83;13.38;;;17.20;80.10;;;;;;5073030;28;20028;-64
2023/05/08 01:30:36;;;;;;;16.95;13.27;;;17.20;80.10;;;;;;5068315;28;20028;-64
2023/05/08 01:33:15;;;;;;;15.38;12.48;;;17.20;80.20;;;;;;5070644;28;20495;-64
2023/05/08 01:35:49;;;;;;;16.23;13.00;;;17.10;80.10;;;;;;5060339;28;20033;-64
2023/05/08 01:38:19;;;;;;;16.92;13.65;;;17.10;80.10;;;;;;5071761;28;20093;-64
2023/05/08 01:40:59;;;;;;;16.83;13.50;;;17.10;80.00;;;;;;5066230;28;20453;-64
2023/05/08 01:43:48;;;;;;;17.20;14.40;;;17.10;80.00;;;;;;5070637;28;20039;-64
2023/05/08 01:46:21;;;;;;;16.45;12.95;;;17.10;79.90;;;;;;5070920;28;20078;-64
2023/05/08 01:48:55;;;;;;;15.93;12.90;;;17.10;79.90;;;;;;5072438;28;20055;-64
2023/05/08 01:51:24;;;;;;;16.40;13.77;;;17.00;79.90;;;;;;5069323;28;20032;-64
2023/05/08 01:54:02;;;;;;;15.95;12.70;;;17.00;80.60;;;;;;5072825;28;20081;-64
2023/05/08 01:56:29;;;;;;;16.88;13.10;;;17.00;79.90;;;;;;5062402;28;20353;-64
2023/05/08 01:58:57;;;;;;;18.48;13.27;;;17.00;80.00;;;;;;5071523;28;20027;-64
2023/05/08 02:01:25;;;;;;;17.05;12.98;;;16.90;79.90;;;;;;5061538;28;20170;-64
2023/05/08 02:03:52;;;;;;;17.08;13.30;;;16.90;80.00;;;;;;5074081;28;20028;-64
2023/05/08 02:06:21;;;;;;;17.45;13.25;;;16.90;80.00;;;;;;5067230;28;20031;-64
2023/05/08 02:08:48;;;;;;;16.52;13.45;;;16.90;80.10;;;;;;5074462;28;20283;-64
2023/05/08 02:11:15;;;;;;;17.48;13.68;;;16.80;80.00;;;;;;5074280;28;20078;-65
2023/05/08 02:13:46;;;;;;;19.42;13.32;;;16.80;80.00;;;;;;5074501;28;20086;-64
2023/05/08 02:16:13;;;;;;;16.85;13.20;;;16.80;80.00;;;;;;5064070;28;20124;-64
2023/05/08 02:18:45;;;;;;;17.48;13.30;;;16.80;80.10;;;;;;5073971;28;20039;-64
2023/05/08 02:21:13;;;;;;;17.20;13.50;;;16.70;80.00;;;;;;5076407;28;20044;-64
2023/05/08 02:23:41;;;;;;;16.05;13.50;;;16.70;80.00;;;;;;5076749;28;20071;-64
2023/05/08 02:26:08;;;;;;;17.95;14.45;;;16.70;80.00;;;;;;5074808;28;20024;-64
2023/05/08 02:28:35;;;;;;;22.30;14.82;;;16.70;80.00;;;;;;5076042;28;20064;-64
2023/05/08 02:31:03;;;;;;;17.45;13.85;;;16.70;80.00;;;;;;5074247;28;20064;-64
2023/05/08 02:33:29;;;;;;;17.20;13.70;;;16.70;79.90;;;;;;5075282;28;20467;-64
2023/05/08 02:35:57;;;;;;;16.75;14.45;;;16.60;79.90;;;;;;5074252;28;20032;-64
2023/05/08 02:38:25;;;;;;;18.02;14.25;;;16.60;79.90;;;;;;5075100;28;20032;-64
2023/05/08 02:40:56;;;;;;;15.48;13.35;;;16.60;79.90;;;;;;5074993;28;20071;-64
2023/05/08 02:43:22;;;;;;;18.02;14.00;;;16.60;79.90;;;;;;5075084;28;20017;-64
2023/05/08 02:45:59;;;;;;;18.10;14.73;;;16.50;79.90;;;;;;5072155;28;20116;-64
2023/05/08 02:48:33;;;;;;;16.83;13.93;;;16.60;80.00;;;;;;5071467;28;20028;-64
2023/05/08 02:51:17;;;;;;;16.45;13.40;;;16.50;80.00;;;;;;5075457;28;20470;-64
2023/05/08 02:53:58;;;;;;;17.38;14.43;;;16.50;80.00;;;;;;5081876;28;20036;-64
2023/05/08 02:56:38;;;;;;;17.50;13.57;;;16.50;80.00;;;;;;5067752;28;20119;-64
2023/05/08 02:59:19;;;;;;;19.08;14.15;;;16.50;80.00;;;;;;5071069;28;20347;-64
2023/05/08 03:02:23;;;;;;;16.65;13.20;;;16.50;79.90;;;;;;5071778;28;20031;-64
2023/05/08 03:04:52;;;;;;;18.13;14.27;;;16.50;79.80;;;;;;5007656;28;20041;-64
2023/05/08 03:07:24;;;;;;;19.38;15.30;;;16.50;79.90;;;;;;5073544;28;20044;-64
2023/05/08 03:09:57;;;;;;;17.48;14.68;;;16.50;79.90;;;;;;5072107;28;20031;-64
2023/05/08 03:12:27;;;;;;;19.25;15.60;;;16.50;79.80;;;;;;5073478;28;20044;-64
2023/05/08 03:15:03;;;;;;;18.77;15.77;;;16.40;79.60;;;;;;5074151;28;20461;-64
2023/05/08 03:17:32;;;;;;;19.08;16.33;;;16.50;79.70;;;;;;5072580;28;20161;-64
2023/05/08 03:20:02;;;;;;;18.30;15.32;;;16.40;79.70;;;;;;5072788;28;20036;-64
2023/05/08 03:22:31;;;;;;;17.75;14.30;;;16.40;79.70;;;;;;5074529;28;20028;-64
2023/05/08 03:25:00;;;;;;;19.27;15.07;;;16.40;79.70;;;;;;5066538;28;20453;-64
2023/05/08 03:27:29;;;;;;;19.02;15.82;;;16.40;79.70;;;;;;5074249;28;20377;-64
2023/05/08 03:29:56;;;;;;;18.73;15.40;;;16.40;79.70;;;;;;5073455;28;20483;-64
2023/05/08 03:32:25;;;;;;;18.58;15.55;;;16.40;79.60;;;;;;5060954;28;20090;-64
2023/05/08 03:34:51;;;;;;;18.63;14.77;;;16.40;79.70;;;;;;5074088;28;20406;-64
2023/05/08 03:37:18;;;;;;;18.35;15.48;;;16.30;79.60;;;;;;5062570;28;20449;-64
2023/05/08 03:39:44;;;;;;;20.38;17.15;;;16.30;79.60;;;;;;5071387;28;20452;-64
2023/05/08 03:42:19;;;;;;;17.95;15.48;;;16.30;79.60;;;;;;5071024;28;20029;-64
2023/05/08 03:44:50;;;;;;;19.98;15.45;;;16.30;79.60;;;;;;5072567;28;20052;-64
2023/05/08 03:47:17;;;;;;;18.65;15.95;;;16.30;79.70;;;;;;5046518;28;20036;-64
2023/05/08 03:49:46;;;;;;;19.90;16.00;;;16.30;79.70;;;;;;5089411;28;20435;-64
2023/05/08 03:52:12;;;;;;;20.17;15.80;;;16.30;79.70;;;;;;5052495;28;20179;-64
2023/05/08 03:54:38;;;;;;;20.83;16.10;;;16.20;79.60;;;;;;5074490;28;20048;-64
2023/05/08 03:57:05;;;;;;;20.73;16.67;;;16.20;79.50;;;;;;5073950;28;20148;-64
2023/05/08 04:00:02;;;;;;;20.05;16.20;;;16.20;79.50;;;;;;5073593;28;20098;-64
2023/05/08 04:02:51;;;;;;;18.17;15.55;;;16.20;79.40;;;;;;5059970;28;20037;-64
2023/05/08 04:05:38;;;;;;;20.25;16.45;;;16.20;79.50;;;;;;5063161;28;20071;-64
2023/05/08 04:08:26;;;;;;;19.02;15.52;;;16.20;79.40;;;;;;5061754;28;20523;-64
2023/05/08 04:11:29;;;;;;;19.00;15.85;;;16.20;79.40;;;;;;5059333;28;20032;-64
2023/05/08 04:14:02;;;;;;;19.80;16.65;;;16.20;79.40;;;;;;5043020;28;20087;-64
2023/05/08 04:16:31;;;;;;;20.50;17.23;;;16.10;79.30;;;;;;5067870;28;20021;-64
2023/05/08 04:19:09;;;;;;;21.40;17.77;;;16.20;79.30;;;;;;5065944;28;20254;-64
2023/05/08 04:21:38;;;;;;;18.33;15.95;;;16.20;79.20;;;;;;5060900;28;20092;-64
2023/05/08 04:24:07;;;;;;;20.42;16.67;;;16.20;79.30;;;;;;5066353;28;20070;-64
2023/05/08 04:26:34;;;;;;;19.90;16.88;;;16.20;79.20;;;;;;5071137;28;20418;-64
2023/05/08 04:29:00;;;;;;;21.88;16.85;;;16.20;79.30;;;;;;5070464;28;20043;-64
2023/05/08 04:31:28;;;;;;;18.98;15.68;;;16.20;79.30;;;;;;5054897;28;20033;-64
2023/05/08 04:33:54;;;;;;;19.60;16.42;;;16.20;79.20;;;;;;5076094;28;20032;-64
2023/05/08 04:36:20;;;;;;;20.75;17.08;;;16.20;79.30;;;;;;5047588;28;20031;-64
2023/05/08 04:38:46;;;;;;;19.30;15.98;;;16.10;79.30;;;;;;5062787;28;20016;-64
2023/05/08 04:41:12;;;;;;;18.13;15.82;;;16.20;79.40;;;;;;5072789;28;20027;-64
2023/05/08 04:43:38;;;;;;;21.45;16.60;;;16.10;79.30;;;;;;5072865;28;20021;-64
2023/05/08 04:46:05;;;;;;;19.05;15.82;;;16.20;79.20;;;;;;5072438;28;20031;-64
2023/05/08 04:48:32;;;;;;;20.40;17.20;;;16.20;79.20;;;;;;5067939;28;20036;-64
2023/05/08 04:50:59;;;;;;;19.75;16.33;;;16.20;79.10;;;;;;5067514;28;20115;-66
2023/05/08 04:53:25;;;;;;;19.15;15.93;;;16.20;79.10;;;;;;5071182;28;20047;-65
2023/05/08 04:55:51;;;;;;;19.45;16.77;;;16.20;79.10;;;;;;5062778;28;20432;-64
2023/05/08 04:58:18;;;;;;;19.67;15.38;;;16.20;79.00;;;;;;5071717;28;20085;-64
2023/05/08 05:00:43;;;;;;;20.48;16.27;;;16.20;79.00;;;;;;5058422;28;20024;-64
2023/05/08 05:03:09;;;;;;;20.13;16.65;;;16.20;79.00;;;;;;5070414;28;20116;-64
2023/05/08 05:05:35;;;;;;;19.98;17.17;;;16.20;78.90;;;;;;5055190;28;20021;-64
2023/05/08 05:08:01;;;;;;;19.63;16.80;;;16.20;78.90;;;;;;5063911;28;20040;-64
2023/05/08 05:10:27;;;;;;;20.20;17.35;;;16.30;78.90;;;;;;5071220;28;20050;-67
2023/05/08 05:12:53;;;;;;;19.30;15.93;;;16.20;78.80;;;;;;5057108;28;20126;-64
2023/05/08 05:15:19;;;;;;;20.52;16.20;;;16.30;78.80;;;;;;5072133;28;20032;-64
2023/05/08 05:17:44;;;;;;;18.33;16.00;;;16.30;79.40;;;;;;5070227;28;20025;-64
2023/05/08 05:20:11;;;;;;;19.83;16.70;;;16.30;78.80;;;;;;5059104;28;20327;-65
2023/05/08 05:22:37;;;;;;;18.33;15.77;;;16.30;78.70;;;;;;5073566;28;20021;-65
2023/05/08 05:25:02;;;;;;;20.90;16.17;;;16.30;78.70;;;;;;5072899;28;20066;-65
2023/05/08 05:27:28;;;;;;;20.08;17.20;;;16.40;78.70;;;;;;5056585;28;20441;-65
2023/05/08 05:29:54;;;;;;;20.52;16.67;;;16.50;78.50;;;;;;5066074;28;20074;-65
2023/05/08 05:32:20;;;;;;;20.63;17.58;;;16.50;78.40;;;;;;5072786;28;20036;-65
2023/05/08 05:34:46;;;;;;;19.65;16.40;;;16.60;78.20;;;;;;5056777;28;20040;-65
2023/05/08 05:37:13;;;;;;;19.27;16.25;;;16.80;78.00;;;;;;5073467;28;20032;-65
2023/05/08 05:39:39;;;;;;;19.83;16.17;;;16.90;77.70;;;;;;5078332;28;20029;-65
2023/05/08 05:42:04;;;;;;;18.92;15.98;;;17.00;77.20;;;;;;5060485;28;20020;-65
2023/05/08 05:44:30;;;;;;;18.77;16.67;;;17.20;76.90;;;;;;5066787;28;20026;-65
2023/05/08 05:46:56;;;;;;;19.67;16.10;;;17.30;76.50;;;;;;5073013;28;20039;-65
2023/05/08 05:49:22;;;;;;;19.05;16.30;;;17.40;76.20;;;;;;5083749;28;20059;-65
2023/05/08 05:51:48;;;;;;;18.92;16.63;;;17.50;76.10;;;;;;5061036;28;20051;-65
2023/05/08 05:54:15;;;;;;;18.92;16.08;;;17.50;76.00;;;;;;5070292;28;20063;-65
2023/05/08 05:56:41;;;;;;;18.17;16.17;;;17.50;75.90;;;;;;5071939;28;20384;-65
2023/05/08 05:59:07;;;;;;;19.42;16.20;;;17.60;75.90;;;;;;5065988;28;20028;-65
2023/05/08 06:01:33;;;;;;;21.45;16.90;;;17.60;75.80;;;;;;5073361;28;20380;-65
2023/05/08 06:03:59;;;;;;;18.90;16.20;;;17.60;75.80;;;;;;5062513;28;20036;-65
2023/05/08 06:06:25;;;;;;;18.60;16.60;;;17.60;75.90;;;;;;5066197;28;20033;-65
2023/05/08 06:08:50;;;;;;;19.50;17.17;;;17.70;75.70;;;;;;5070203;28;20123;-65
2023/05/08 06:11:16;;;;;;;19.95;15.98;;;17.70;75.60;;;;;;5060672;28;20029;-65
2023/05/08 06:13:43;;;;;;;21.05;16.35;;;17.80;75.30;;;;;;5067645;28;20020;-65
2023/05/08 06:16:09;;;;;;;19.65;15.80;;;17.90;75.20;;;;;;5070430;28;20115;-65
2023/05/08 06:18:35;;;;;;;21.17;17.38;;;17.90;75.20;;;;;;5069502;28;20039;-65
2023/05/08 06:21:00;;;;;;;21.52;17.63;;;17.90;75.00;;;;;;5059568;28;20024;-65
2023/05/08 06:23:26;;;;;;;20.83;18.20;;;17.80;74.90;;;;;;5061474;28;20029;-65
2023/05/08 06:25:54;;;;;;;22.83;18.23;;;17.80;74.80;;;;;;5067178;28;20056;-65
2023/05/08 06:28:21;;;;;;;23.75;19.08;;;17.80;74.90;;;;;;5068150;28;20043;-65
2023/05/08 06:30:47;;;;;;;25.90;18.95;;;17.90;75.00;;;;;;5066184;28;20032;-66
2023/05/08 06:33:12;;;;;;;30.15;20.35;;;18.00;74.90;;;;;;5056095;28;20094;-65
2023/05/08 06:35:39;;;;;;;45.78;21.33;;;18.00;74.70;;;;;;5057943;28;20045;-65
2023/05/08 06:38:05;;;;;;;31.20;19.83;;;18.10;74.60;;;;;;5063340;28;20448;-65
2023/05/08 06:40:30;;;;;;;29.08;20.08;;;18.10;74.60;;;;;;5062187;28;20110;-64
2023/05/08 06:42:56;;;;;;;26.98;20.38;;;18.10;74.60;;;;;;5060891;28;20052;-65
2023/05/08 06:45:22;;;;;;;26.33;19.23;;;18.00;74.60;;;;;;5069450;28;20082;-65
2023/05/08 06:47:48;;;;;;;29.63;20.83;;;18.00;74.60;;;;;;5069059;28;20025;-65
2023/05/08 06:50:13;;;;;;;27.77;20.90;;;18.00;74.60;;;;;;5065393;28;20021;-65
2023/05/08 06:52:39;;;;;;;27.23;20.33;;;18.00;74.60;;;;;;5073536;28;20033;-65
2023/05/08 06:55:05;;;;;;;27.15;19.85;;;18.20;74.50;;;;;;5063900;28;20028;-65
2023/05/08 06:57:31;;;;;;;28.52;20.70;;;18.30;74.40;;;;;;5073269;28;20028;-65
2023/05/08 06:59:56;;;;;;;28.92;20.65;;;18.40;74.30;;;;;;5067612;28;20033;-65
2023/05/08 07:02:22;;;;;;;27.70;20.20;;;18.60;74.20;;;;;;5070742;28;20024;-65
2023/05/08 07:04:48;;;;;;;27.90;20.50;;;18.90;73.80;;;;;;5065699;28;20024;-65
2023/05/08 07:07:14;;;;;;;29.60;20.75;;;19.10;73.20;;;;;;5057196;28;20071;-65
2023/05/08 07:09:40;;;;;;;29.20;20.40;;;19.20;72.70;;;;;;5067860;28;20039;-65
2023/05/08 07:12:06;;;;;;;28.55;20.60;;;19.40;72.90;;;;;;5058537;28;20032;-65
2023/05/08 07:14:31;;;;;;;26.25;20.13;;;19.60;72.40;;;;;;5071440;28;20358;-65
2023/05/08 07:16:59;;;;;;;25.30;19.45;;;19.80;72.00;;;;;;5061084;28;20036;-65
2023/05/08 07:19:25;;;;;;;28.77;20.98;;;20.00;71.70;;;;;;5067097;28;20151;-65
2023/05/08 07:21:51;;;;;;;26.40;19.77;;;20.10;71.10;;;;;;5066938;28;20111;-66
2023/05/08 07:24:17;;;;;;;26.88;20.20;;;20.30;70.70;;;;;;5069296;28;20021;-66
2023/05/08 07:26:43;;;;;;;29.88;20.98;;;20.50;70.40;;;;;;5068634;28;20032;-65
2023/05/08 07:29:09;;;;;;;26.13;19.02;;;20.70;70.10;;;;;;5073624;28;20048;-66
2023/05/08 07:31:39;;;;;;;28.10;21.08;;;20.80;69.90;;;;;;5073724;28;20116;-66
2023/05/08 07:34:06;;;;;;;26.38;19.63;;;21.00;69.50;;;;;;5073404;28;20046;-66
2023/05/08 07:36:31;;;;;;;24.33;19.50;;;21.30;69.30;;;;;;5074170;28;20047;-66
2023/05/08 07:38:57;;;;;;;30.30;19.33;;;21.50;68.90;;;;;;5068748;28;20021;-66
2023/05/08 07:41:25;;;;;;;29.08;20.30;;;21.60;68.40;;;;;;5063397;28;20350;-66
2023/05/08 07:43:51;;;;;;;26.85;19.75;;;21.60;68.20;;;;;;5075979;28;20060;-66
2023/05/08 07:46:17;;;;;;;30.38;20.63;;;21.40;68.30;;;;;;5073085;28;20063;-65
2023/05/08 07:48:44;;;;;;;31.45;21.50;;;21.20;68.70;;;;;;5057909;28;20039;-66
2023/05/08 07:51:10;;;;;;;25.48;20.40;;;21.00;69.00;;;;;;5059308;28;20044;-65
2023/05/08 07:53:36;;;;;;;31.50;22.02;;;20.90;69.40;;;;;;5063296;28;20029;-65
2023/05/08 07:56:02;;;;;;;33.65;22.83;;;20.60;69.60;;;;;;5069138;28;20083;-67
2023/05/08 07:58:28;;;;;;;30.08;22.17;;;20.50;70.00;;;;;;5063742;28;20319;-68
2023/05/08 08:00:54;;;;;;;33.92;24.75;;;20.30;70.20;;;;;;5055742;28;20093;-68
2023/05/08 08:03:19;;;;;;;35.20;23.42;;;20.20;70.50;;;;;;5060748;28;20087;-67
2023/05/08 08:05:45;;;;;;;35.50;25.02;;;20.10;70.80;;;;;;5058440;28;20025;-67
2023/05/08 08:08:11;;;;;;;32.03;23.58;;;20.00;71.10;;;;;;5055590;28;20041;-67
2023/05/08 08:10:37;;;;;;;32.00;24.33;;;19.90;71.20;;;;;;5070749;28;20028;-67
2023/05/08 08:13:03;;;;;;;34.38;24.50;;;19.90;71.30;;;;;;5066035;28;20032;-67
2023/05/08 08:15:28;;;;;;;36.88;24.30;;;19.80;71.50;;;;;;5068547;28;20041;-67
2023/05/08 08:17:54;;;;;;;34.78;25.30;;;19.70;71.60;;;;;;5056485;28;20113;-67
2023/05/08 08:20:21;;;;;;;34.83;25.17;;;19.70;71.80;;;;;;5062888;28;20077;-67
2023/05/08 08:22:46;;;;;;;33.63;25.15;;;19.70;71.90;;;;;;5056000;28;20045;-68
2023/05/08 08:25:12;;;;;;;37.40;24.85;;;19.60;72.00;;;;;;5063875;28;20028;-67
2023/05/08 08:27:38;;;;;;;33.60;23.98;;;19.60;72.10;;;;;;5054793;28;20045;-67
2023/05/08 08:30:04;;;;;;;36.03;25.20;;;19.60;72.10;;;;;;5063004;28;20032;-68
2023/05/08 08:32:30;;;;;;;34.35;25.08;;;19.70;72.30;;;;;;5057687;28;20043;-67
2023/05/08 08:34:56;;;;;;;36.65;26.08;;;19.60;72.40;;;;;;5070170;28;20437;-67
2023/05/08 08:37:25;;;;;;;37.10;26.52;;;19.60;72.40;;;;;;5059664;28;20027;-67
2023/05/08 08:39:51;;;;;;;35.30;24.70;;;19.60;72.60;;;;;;5057640;28;21330;-67
2023/05/08 08:42:16;;;;;;;34.45;25.10;;;19.70;72.70;;;;;;5064618;28;20083;-67
2023/05/08 08:44:43;;;;;;;36.15;25.02;;;19.70;72.70;;;;;;5072018;28;20021;-67
2023/05/08 08:47:13;;;;;;;34.70;25.30;;;19.70;72.50;;;;;;5064404;28;20108;-67
2023/05/08 08:49:49;;;;;;;35.33;25.45;;;19.90;72.50;;;;;;5067806;28;20022;-67
2023/05/08 08:52:29;;;;;;;39.83;25.30;;;20.10;72.30;;;;;;5063693;28;20031;-67
2023/05/08 08:54:56;;;;;;;36.25;24.83;;;20.20;72.00;;;;;;5060480;28;20058;-67
2023/05/08 08:57:23;;;;;;;33.60;24.23;;;20.50;71.50;;;;;;5065180;28;20056;-66
2023/05/08 08:59:49;;;;;;;30.25;23.90;;;20.90;71.00;;;;;;5073496;28;20079;-67
2023/05/08 09:02:18;;;;;;;30.52;23.08;;;21.30;70.40;;;;;;5067401;28;20051;-67
2023/05/08 09:04:44;;;;;;;34.17;24.77;;;21.50;69.90;;;;;;5073842;28;20074;-67
2023/05/08 09:07:11;;;;;;;35.03;24.60;;;21.70;69.30;;;;;;5073513;28;20055;-66
2023/05/08 09:09:43;;;;;;;33.58;24.58;;;21.90;68.70;;;;;;5074870;28;20254;-67
2023/05/08 09:12:09;;;;;;;32.08;23.05;;;22.00;68.30;;;;;;5065771;28;20028;-67
2023/05/08 09:14:35;;;;;;;26.65;22.02;;;22.20;68.90;;;;;;5073475;28;20079;-67
2023/05/08 09:17:01;;;;;;;31.50;22.73;;;22.50;68.50;;;;;;5074570;28;20025;-67
2023/05/08 09:19:28;;;;;;;30.80;23.83;;;22.80;67.10;;;;;;5073777;28;20451;-67
2023/05/08 09:21:54;;;;;;;33.15;22.70;;;23.00;66.50;;;;;;5073503;28;20028;-67
2023/05/08 09:24:20;;;;;;;32.70;23.85;;;23.20;66.60;;;;;;5073477;28;20099;-67
2023/05/08 09:26:46;;;;;;;30.17;22.67;;;23.20;65.70;;;;;;5074583;28;20390;-67
2023/05/08 09:29:14;;;;;;;30.27;22.42;;;23.30;65.40;;;;;;5074335;28;20121;-67
2023/05/08 09:31:43;;;;;;;29.58;21.90;;;23.40;65.20;;;;;;5065454;28;20033;-67
2023/05/08 09:34:22;;;;;;;28.58;21.52;;;23.50;64.90;;;;;;5070261;28;20040;-67
2023/05/08 09:36:48;;;;;;;27.92;23.02;;;23.60;64.60;;;;;;5074166;28;20381;-67
2023/05/08 09:39:24;;;;;;;27.73;21.55;;;23.40;64.20;;;;;;5074332;28;20046;-67
2023/05/08 09:41:56;;;;;;;26.35;20.65;;;23.30;64.20;;;;;;5060233;28;20502;-67
2023/05/08 09:44:22;;;;;;;28.65;21.95;;;23.10;64.40;;;;;;5065064;28;20020;-67
2023/05/08 09:46:49;;;;;;;27.98;21.48;;;23.00;64.70;;;;;;5044329;28;20051;-67
2023/05/08 09:49:18;;;;;;;26.45;20.75;;;22.90;64.70;;;;;;5074354;28;20191;-67
2023/05/08 09:51:52;;;;;;;27.85;21.80;;;22.80;64.90;;;;;;5074194;28;20123;-67
2023/05/08 09:54:19;;;;;;;28.92;21.77;;;22.80;65.10;;;;;;5072198;28;20163;-67
2023/05/08 09:56:44;;;;;;;27.92;21.23;;;22.70;65.20;;;;;;5072696;28;20365;-67
2023/05/08 09:59:23;;;;;;;27.52;22.20;;;22.70;65.30;;;;;;5074187;28;20033;-67
2023/05/08 10:01:49;;;;;;;26.65;20.58;;;22.60;65.50;;;;;;5072021;28;20029;-67
2023/05/08 10:04:15;;;;;;;27.45;21.25;;;22.60;65.60;;;;;;5073725;28;20032;-67
2023/05/08 10:06:41;;;;;;;28.45;20.75;;;22.60;65.50;;;;;;5074037;28;20028;-66
2023/05/08 10:09:09;;;;;;;26.20;20.48;;;22.70;65.50;;;;;;5070818;28;20464;-66
2023/05/08 10:11:35;;;;;;;26.60;20.60;;;22.80;65.40;;;;;;5072891;28;20033;-67
2023/05/08 10:14:01;;;;;;;27.67;21.08;;;22.90;65.30;;;;;;5072567;28;20342;-67
2023/05/08 10:16:29;;;;;;;27.92;21.50;;;23.00;65.20;;;;;;5073844;28;20037;-67
2023/05/08 10:19:01;;;;;;;24.63;21.15;;;23.00;65.40;;;;;;5059195;28;20308;-67
2023/05/08 10:21:34;;;;;;;26.02;20.50;;;23.00;65.70;;;;;;5074202;28;20429;-67
2023/05/08 10:24:05;;;;;;;30.35;21.65;;;23.00;65.70;;;;;;5074448;28;20047;-67
2023/05/08 10:26:32;;;;;;;;;;;23.00;65.80;;;;;;5060494;28;20510;-67
2023/05/08 10:29:05;;;;;;;28.67;21.05;;;23.00;66.60;;;;;;5076640;28;19999;-67
2023/05/08 10:31:34;;;;;;;29.77;21.55;;;22.90;65.90;;;;;;5077514;28;20107;-67
2023/05/08 10:34:02;;;;;;;28.95;21.83;;;23.10;66.00;;;;;;5077819;28;20372;-67
2023/05/08 10:36:30;;;;;;;26.27;21.83;;;23.20;65.60;;;;;;5076349;28;20342;-67
2023/05/08 10:39:00;;;;;;;27.30;21.88;;;23.40;65.30;;;;;;5076289;28;20028;-67
2023/05/08 10:41:26;;;;;;;26.17;21.60;;;23.30;65.10;;;;;;5061030;28;20409;-67
2023/05/08 10:43:53;;;;;;;27.75;21.77;;;23.10;65.40;;;;;;5077547;28;20036;-67
2023/05/08 10:46:36;;;;;;;28.58;22.83;;;23.00;65.80;;;;;;5077240;28;20083;-67
2023/05/08 10:49:30;;;;;;;25.88;21.02;;;22.80;66.00;;;;;;5077105;28;20124;-67
2023/05/08 10:52:17;;;;;;;27.67;21.73;;;22.60;66.40;;;;;;5075487;28;20032;-67
2023/05/08 10:54:57;;;;;;;27.00;21.55;;;22.50;66.90;;;;;;5070325;28;20517;-67
2023/05/08 10:57:23;;;;;;;28.25;23.52;;;22.40;67.20;;;;;;5064752;28;20025;-66
2023/05/08 10:59:49;;;;;;;29.90;22.45;;;22.30;67.50;;;;;;5075961;28;20178;-67
2023/05/08 11:02:15;;;;;;;26.75;22.70;;;22.10;67.90;;;;;;5076900;28;20449;-67
2023/05/08 11:04:42;;;;;;;28.70;25.27;;;21.90;68.40;;;;;;5075958;28;20024;-67
2023/05/08 11:07:08;;;;;;;27.83;24.67;;;21.70;69.00;;;;;;5077146;28;20038;-67
2023/05/08 11:09:40;;;;;;;29.67;26.27;;;21.50;69.60;;;;;;5075573;28;20055;-67
2023/05/08 11:12:08;;;;;;;29.20;25.52;;;21.30;70.60;;;;;;5073225;28;20468;-67
2023/05/08 11:14:38;;;;;;;31.02;26.30;;;21.10;71.10;;;;;;5073895;28;20342;-67
2023/05/08 11:17:05;;;;;;;33.90;27.73;;;21.00;71.90;;;;;;5074294;28;20103;-67
2023/05/08 11:19:31;;;;;;;32.80;28.88;;;20.90;72.50;;;;;;5061387;28;20029;-67
2023/05/08 11:22:20;;;;;;;30.42;25.30;;;20.80;73.00;;;;;;5071686;28;20453;-67
2023/05/08 11:25:00;;;;;;;30.13;26.85;;;20.70;73.70;;;;;;5063236;28;20349;-68
2023/05/08 11:27:47;;;;;;;29.67;26.48;;;20.70;74.10;;;;;;5076226;28;20043;-69
2023/05/08 11:30:24;;;;;;;31.35;27.58;;;20.60;74.20;;;;;;5072696;28;20522;-68
2023/05/08 11:33:02;;;;;;;30.42;25.15;;;20.60;74.60;;;;;;5076115;28;20093;-68
2023/05/08 11:35:43;;;;;;;32.88;27.95;;;20.60;74.90;;;;;;5070574;28;20127;-68
2023/05/08 11:38:16;;;;;;;30.60;27.35;;;20.60;75.10;;;;;;5062736;28;20028;-68
2023/05/08 11:40:47;;;;;;;33.97;28.85;;;20.60;75.30;;;;;;5062948;28;20016;-68
2023/05/08 11:43:32;;;;;;;32.38;28.67;;;20.60;75.60;;;;;;5072944;28;20035;-68
2023/05/08 11:46:07;;;;;;;32.15;28.60;;;20.60;75.40;;;;;;5065542;28;20335;-68
2023/05/08 11:48:34;;;;;;;32.90;29.13;;;20.50;75.60;;;;;;5067920;28;20024;-68
2023/05/08 11:51:01;;;;;;;32.63;28.10;;;20.50;75.80;;;;;;5067601;28;20334;-67
2023/05/08 11:53:29;;;;;;;34.10;29.58;;;20.50;76.10;;;;;;5061878;28;20028;-68
2023/05/08 11:55:55;;;;;;;34.72;30.58;;;20.50;76.40;;;;;;5062321;28;20040;-68
2023/05/08 11:58:21;;;;;;;34.33;30.70;;;20.50;76.60;;;;;;5066552;28;20041;-67
2023/05/08 12:00:48;;;;;;;34.97;31.23;;;20.50;76.70;;;;;;5070344;28;20021;-68
2023/05/08 12:03:17;;;;;;;35.35;31.52;;;20.60;76.80;;;;;;5060709;28;20025;-68
2023/05/08 12:05:43;;;;;;;33.97;30.30;;;20.60;76.70;;;;;;5059892;28;20445;-67
2023/05/08 12:08:11;;;;;;;35.00;31.27;;;20.60;76.40;;;;;;5061959;28;20064;-67
2023/05/08 12:10:48;;;;;;;36.38;31.17;;;20.70;76.20;;;;;;5062198;28;20448;-69
2023/05/08 12:13:25;;;;;;;35.85;31.95;;;20.80;76.30;;;;;;5065482;28;20029;-68
2023/05/08 12:15:53;;;;;;;35.67;31.90;;;20.90;76.10;;;;;;5070840;28;20067;-68
2023/05/08 12:18:20;;;;;;;37.47;33.55;;;20.90;75.90;;;;;;5070852;28;20028;-68
2023/05/08 12:20:52;;;;;;;35.58;31.77;;;21.00;75.90;;;;;;5064455;28;20027;-68
2023/05/08 12:23:18;;;;;;;38.55;33.72;;;21.00;76.20;;;;;;5055137;28;20037;-68
2023/05/08 12:25:44;;;;;;;36.65;32.55;;;21.00;76.40;;;;;;5064344;28;20020;-68
2023/05/08 12:28:10;;;;;;;36.05;31.70;;;21.00;76.70;;;;;;5054028;28;20106;-68
2023/05/08 12:30:36;;;;;;;36.83;32.20;;;21.00;76.70;;;;;;5067175;28;20372;-67
2023/05/08 12:33:03;;;;;;;36.70;32.72;;;20.90;76.60;;;;;;5057015;28;20119;-66
2023/05/08 12:35:30;;;;;;;35.63;31.88;;;20.90;76.40;;;;;;5067134;28;20025;-67
2023/05/08 12:38:04;;;;;;;37.78;33.20;;;20.80;76.30;;;;;;5061478;28;20028;-66